KPAM/PAM METAR and TAF weather

Enter ICAO airport designator
Station Type Date Time Source
KPAM METAR 2022/11/30 17:55 UTC NOAA

KPAM 301755Z 00000KT 05SM -DZ BR BKN047 20/18 A3008 RMK A02A RAE1655DZB1655E1656RAB1656E54DZB54 PRESRR SLP189 P0004 60056 T02000183 10234 20195 58009 $


Station Type Date Time Source
KPAM Decoded METAR 2022/11/30 17:55 UTC NOAA

Tyndall Air Force Base, FL, United States (KPAM) 30-04N 085-35W 13M
Nov 30, 2022 - 12:55 PM EST / 2022.11.30 1755 UTC
Wind: Calm:0
Visibility: 5 mile(s):0
Sky conditions: mostly cloudy
Weather: light drizzle; mist
Precipitation last hour: 0.04 inches
Temperature: 68.0 F (20.0 C)
Dew Point: 64.9 F (18.3 C)
Relative Humidity: 89%
Pressure (altimeter): 30.08 in. Hg (1018 hPa)
Pressure tendency: rising rapidly - 0.03 inches (0.9 hPa) lower than three hours ago
ob: KPAM 301755Z 00000KT 05SM -DZ BR BKN047 20/18 A3008 RMK A02A RAE1655DZB1655E1656RAB1656E54DZB54 PRESRR SLP189 P0004 60056 T02000183 10234 20195 58009
cycle: 18

Station Type Date Time Source
KPAM TAF 2022/11/30 16:36 UTC NOAA

TAF COR KPAM 301625Z 3016/0118 32012KT 3200 -SHRA BR BKN005 OVC010 QNH2998INS
TEMPO 3016/3018 6000 -SHRA BR SCT005 BKN015
BECMG 3017/3018 36009KT 9999 NSW SCT010 SCT050 QNH3004INS
BECMG 3021/3022 36010G18KT 9999 SKC QNH3005INS TX26/3016Z TN07/0111Z

Example: see airport list